createdAt,value
2023-05-19T00:04:02.035Z,81.74
2023-05-19T00:09:02.032Z,82.60
2023-05-19T00:14:02.022Z,82.70
2023-05-19T00:19:02.038Z,82.50
2023-05-19T00:24:01.975Z,82.40
2023-05-19T00:29:01.935Z,83.12
2023-05-19T00:34:01.941Z,83.87
2023-05-19T00:39:01.866Z,84.08
2023-05-19T00:44:01.821Z,84.43
2023-05-19T00:49:01.792Z,85.15
2023-05-19T00:54:01.732Z,85.50
2023-05-19T00:59:01.700Z,85.60
2023-05-19T01:04:01.770Z,85.81
2023-05-19T01:09:01.670Z,85.60
2023-05-19T01:14:01.645Z,85.60
2023-05-19T01:19:01.720Z,85.81
2023-05-19T01:24:01.523Z,86.12
2023-05-19T01:29:01.473Z,86.22
2023-05-19T01:34:01.470Z,86.22
2023-05-19T01:39:01.414Z,86.12
2023-05-19T01:44:01.378Z,85.36
2023-05-19T01:49:01.347Z,85.46
2023-05-19T01:54:01.308Z,84.91
2023-05-19T01:59:01.273Z,84.59
2023-05-19T02:04:01.292Z,84.91
2023-05-19T02:09:01.212Z,85.01
2023-05-19T02:14:01.168Z,85.01
2023-05-19T02:19:01.274Z,84.77
2023-05-19T02:24:01.086Z,84.66
2023-05-19T02:29:01.059Z,84.66
2023-05-19T02:34:01.020Z,84.97
2023-05-19T02:39:01.023Z,84.62
2023-05-19T02:44:00.969Z,84.21
2023-05-19T02:49:00.927Z,84.21
2023-05-19T02:54:00.894Z,84.42
2023-05-19T02:59:00.857Z,84.42
2023-05-19T03:04:00.877Z,84.52
2023-05-19T03:09:00.807Z,85.14
2023-05-19T03:14:00.761Z,85.24
2023-05-19T03:19:00.796Z,85.44
2023-05-19T03:24:00.696Z,85.14
2023-05-19T03:29:00.670Z,84.79
2023-05-19T03:34:00.627Z,85.03
2023-05-19T03:39:01.585Z,84.58
2023-05-19T03:44:01.166Z,83.86
2023-05-19T03:49:00.544Z,82.90
2023-05-19T03:54:00.762Z,83.20
2023-05-19T03:59:00.717Z,83.65
2023-05-19T04:04:00.559Z,82.79
2023-05-19T04:09:00.430Z,81.97
2023-05-19T04:14:00.607Z,81.67
2023-05-19T04:19:00.498Z,80.74
2023-05-19T04:24:00.312Z,80.60
2023-05-19T04:29:00.867Z,81.21
2023-05-19T04:34:00.451Z,81.52
2023-05-19T04:39:00.238Z,80.66
2023-05-19T04:44:00.427Z,78.40
2023-05-19T04:49:00.226Z,77.68
2023-05-19T04:54:00.431Z,77.03
2023-05-19T04:59:00.156Z,76.17
2023-05-19T05:04:00.084Z,75.42
2023-05-19T05:09:00.076Z,75.11
2023-05-19T05:14:00.036Z,74.36
2023-05-19T05:19:00.003Z,74.36
2023-05-19T05:23:59.921Z,74.05
2023-05-19T05:28:59.989Z,74.02
2023-05-19T05:33:59.824Z,73.71
2023-05-19T05:38:59.791Z,73.88
2023-05-19T05:43:59.737Z,73.03
2023-05-19T05:48:59.705Z,72.72
2023-05-19T05:53:59.724Z,71.04
2023-05-19T05:58:59.708Z,71.08
2023-05-19T06:04:00.426Z,69.62
2023-05-19T06:08:59.607Z,67.27
2023-05-19T06:13:59.517Z,66.75
2023-05-19T06:18:59.549Z,67.30
2023-05-19T06:23:59.500Z,65.95
2023-05-19T06:28:59.545Z,65.41
2023-05-19T06:33:59.408Z,64.18
2023-05-19T06:39:00.686Z,65.00
2023-05-19T06:43:59.356Z,63.92
2023-05-19T06:48:59.338Z,63.35
2023-05-19T06:53:59.319Z,62.98
2023-05-19T06:58:59.284Z,63.06
2023-05-19T07:03:59.429Z,57.65
2023-05-19T07:08:59.193Z,47.66
2023-05-19T07:13:59.179Z,44.32
2023-05-19T07:18:59.150Z,40.50
2023-05-19T07:23:59.118Z,40.22
2023-05-19T07:28:59.101Z,38.70
2023-05-19T07:33:59.064Z,39.14
2023-05-19T07:38:59.051Z,38.40
2023-05-19T07:43:59.078Z,39.12
2023-05-19T07:48:58.993Z,37.36
2023-05-19T07:53:58.892Z,41.74
2023-05-19T07:58:58.895Z,42.32
2023-05-19T08:03:58.921Z,41.97
2023-05-19T08:08:58.800Z,40.07
2023-05-19T08:13:58.750Z,35.28
2023-05-19T08:18:58.770Z,35.19
2023-05-19T08:23:58.750Z,33.48
2023-05-19T08:28:58.703Z,37.71
2023-05-19T08:33:58.686Z,38.18
2023-05-19T08:38:58.670Z,39.59
2023-05-19T08:43:58.658Z,36.61
2023-05-19T08:48:58.610Z,40.89
2023-05-19T08:53:58.572Z,39.28
2023-05-19T08:58:58.540Z,41.25
2023-05-19T09:03:58.687Z,38.50
2023-05-19T09:08:58.509Z,38.01
2023-05-19T09:13:58.520Z,45.34
2023-05-19T09:18:58.537Z,44.59
2023-05-19T09:23:58.446Z,41.47
2023-05-19T09:28:58.416Z,45.30
2023-05-19T09:33:58.369Z,43.44
2023-05-19T09:38:58.352Z,45.29
2023-05-19T09:43:58.293Z,44.41
2023-05-19T09:48:58.262Z,43.71
2023-05-19T09:53:58.230Z,45.07
2023-05-19T09:58:58.192Z,41.57
2023-05-19T10:03:58.162Z,40.79
2023-05-19T10:08:58.164Z,39.91
2023-05-19T10:13:58.082Z,39.29
2023-05-19T10:18:58.115Z,40.02
2023-05-19T10:23:58.045Z,41.37
2023-05-19T10:28:58.036Z,41.77
2023-05-19T10:33:58.011Z,39.40
2023-05-19T10:38:58.007Z,37.88
2023-05-19T10:43:57.980Z,36.65
2023-05-19T10:48:57.962Z,38.38
2023-05-19T10:53:57.919Z,36.88
2023-05-19T10:58:57.899Z,37.10
2023-05-19T11:03:57.900Z,39.18
2023-05-19T11:08:57.839Z,36.69
2023-05-19T11:13:57.869Z,36.71
2023-05-19T11:18:57.801Z,36.40
2023-05-19T11:23:57.810Z,37.08
2023-05-19T11:28:57.686Z,37.08
2023-05-19T11:33:57.670Z,33.33
2023-05-19T11:38:57.648Z,34.14
2023-05-19T11:43:57.637Z,33.30
2023-05-19T11:48:57.579Z,32.64
2023-05-19T11:53:57.578Z,36.05
2023-05-19T11:58:57.557Z,35.93
2023-05-19T12:03:57.598Z,36.75
2023-05-19T12:08:57.511Z,38.64
2023-05-19T12:13:57.483Z,39.47
2023-05-19T12:18:57.504Z,39.62
2023-05-19T12:23:57.472Z,38.09
2023-05-19T12:28:57.445Z,38.00
2023-05-19T12:33:57.523Z,35.91
2023-05-19T12:38:57.376Z,35.99
2023-05-19T12:43:57.351Z,38.44
2023-05-19T12:48:57.341Z,40.22
2023-05-19T12:53:57.321Z,39.12
2023-05-19T12:58:57.275Z,39.38
2023-05-19T13:03:57.435Z,38.24
2023-05-19T13:08:57.240Z,38.86
2023-05-19T13:13:57.184Z,39.88
2023-05-19T13:18:57.240Z,40.37
2023-05-19T13:23:57.143Z,41.05
2023-05-19T13:28:57.106Z,41.43
2023-05-19T13:33:57.051Z,41.49
2023-05-19T13:38:57.028Z,40.19
2023-05-19T13:43:56.990Z,39.76
2023-05-19T13:48:56.966Z,37.77
2023-05-19T13:53:56.930Z,39.01
2023-05-19T13:58:56.907Z,40.39
2023-05-19T14:03:57.097Z,38.60
2023-05-19T14:08:56.804Z,38.31
2023-05-19T14:13:56.778Z,39.56
2023-05-19T14:18:56.831Z,39.54
2023-05-19T14:23:56.750Z,39.69
2023-05-19T14:28:56.709Z,38.86
2023-05-19T14:33:56.682Z,38.04
2023-05-19T14:38:56.642Z,40.50
2023-05-19T14:43:56.627Z,40.50
2023-05-19T14:48:56.694Z,39.38
2023-05-19T14:53:56.548Z,38.02
2023-05-19T14:58:56.508Z,38.64
2023-05-19T15:03:56.524Z,39.78
2023-05-19T15:08:56.428Z,39.94
2023-05-19T15:13:56.448Z,40.62
2023-05-19T15:18:56.403Z,40.00
2023-05-19T15:23:56.341Z,39.16
2023-05-19T15:28:56.312Z,39.88
2023-05-19T15:33:56.263Z,40.34
2023-05-19T15:38:56.210Z,40.78
2023-05-19T15:43:56.165Z,40.66
2023-05-19T15:48:56.106Z,40.12
2023-05-19T15:53:56.102Z,39.84
2023-05-19T15:58:56.151Z,40.36
2023-05-19T16:03:56.153Z,40.86
2023-05-19T16:08:56.034Z,41.45
2023-05-19T16:13:55.982Z,41.75
2023-05-19T16:18:55.965Z,40.95
2023-05-19T16:23:55.927Z,41.37
2023-05-19T16:28:55.865Z,42.27
2023-05-19T16:33:55.817Z,43.02
2023-05-19T16:38:55.801Z,42.38
2023-05-19T16:43:55.801Z,43.10
2023-05-19T16:48:55.754Z,43.10
2023-05-19T16:53:55.727Z,43.18
2023-05-19T16:58:55.749Z,43.16
2023-05-19T17:03:55.825Z,43.60
2023-05-19T17:08:55.711Z,43.91
2023-05-19T17:13:55.653Z,44.35
2023-05-19T17:18:55.680Z,44.95
2023-05-19T17:23:55.630Z,45.48
2023-05-19T17:28:55.612Z,45.89
2023-05-19T17:33:55.597Z,46.29
2023-05-19T17:38:55.555Z,46.92
2023-05-19T17:43:55.552Z,47.52
2023-05-19T17:48:55.496Z,48.13
2023-05-19T17:53:55.500Z,48.45
2023-05-19T17:58:55.443Z,48.96
2023-05-19T18:03:55.496Z,49.05
2023-05-19T18:08:55.352Z,49.58
2023-05-19T18:13:55.759Z,50.21
2023-05-19T18:18:55.337Z,50.62
2023-05-19T18:23:55.296Z,50.92
2023-05-19T18:28:55.233Z,51.25
2023-05-19T18:33:55.350Z,51.35
2023-05-19T18:38:55.192Z,51.76
2023-05-19T18:43:55.191Z,52.39
2023-05-19T18:48:55.145Z,52.79
2023-05-19T18:53:55.115Z,53.19
2023-05-19T18:58:55.170Z,53.83
2023-05-19T19:03:55.036Z,54.33
2023-05-19T19:08:55.011Z,54.76
2023-05-19T19:13:55.008Z,54.97
2023-05-19T19:18:55.034Z,55.17
2023-05-19T19:23:54.911Z,55.47
2023-05-19T19:28:54.857Z,55.68
2023-05-19T19:33:54.881Z,56.01
2023-05-19T19:38:54.821Z,56.21
2023-05-19T19:43:54.786Z,56.41
2023-05-19T19:48:54.759Z,56.61
2023-05-19T19:53:54.714Z,57.04
2023-05-19T19:58:56.165Z,57.35
2023-05-19T20:03:54.774Z,57.65
2023-05-19T20:08:54.634Z,57.96
2023-05-19T20:13:54.626Z,58.39
2023-05-19T20:18:54.679Z,59.00
2023-05-19T20:23:54.590Z,59.53
2023-05-19T20:28:54.532Z,59.84
2023-05-19T20:33:54.513Z,60.27
2023-05-19T20:38:54.511Z,60.27
2023-05-19T20:43:54.789Z,60.27
2023-05-19T20:48:54.459Z,60.71
2023-05-19T20:53:54.442Z,61.01
2023-05-19T20:58:54.428Z,61.41
2023-05-19T21:03:54.401Z,61.65
2023-05-19T21:08:54.397Z,62.16
2023-05-19T21:13:54.343Z,62.46
2023-05-19T21:18:54.351Z,62.66
2023-05-19T21:23:54.311Z,63.20
2023-05-19T21:28:54.316Z,63.74
2023-05-19T21:33:54.298Z,64.25
2023-05-19T21:38:54.266Z,64.76
2023-05-19T21:43:54.267Z,64.89
2023-05-19T21:48:54.240Z,65.16
2023-05-19T21:53:54.234Z,65.06
2023-05-19T21:58:54.198Z,65.36
2023-05-19T22:03:54.293Z,65.47
2023-05-19T22:08:54.151Z,65.57
2023-05-19T22:13:54.248Z,65.88
2023-05-19T22:18:54.108Z,65.88
2023-05-19T22:23:54.099Z,65.88
2023-05-19T22:28:54.072Z,65.88
2023-05-19T22:33:54.120Z,65.88
2023-05-19T22:38:54.010Z,65.88
2023-05-19T22:43:53.975Z,65.84
2023-05-19T22:48:53.958Z,65.94
2023-05-19T22:53:53.938Z,65.84
2023-05-19T22:58:53.906Z,65.88
2023-05-19T23:03:53.866Z,66.28
2023-05-19T23:08:53.799Z,66.69
2023-05-19T23:13:53.795Z,66.99
2023-05-19T23:18:53.858Z,67.30
2023-05-19T23:23:53.753Z,67.50
2023-05-19T23:28:53.726Z,67.60
2023-05-19T23:33:53.704Z,68.01
2023-05-19T23:38:53.688Z,68.21
2023-05-19T23:43:53.669Z,68.32
2023-05-19T23:48:53.659Z,68.41
2023-05-19T23:53:53.626Z,68.41
2023-05-19T23:58:53.607Z,68.62
